createdAt,value
2023-01-28T00:01:17.117Z,102020.06
2023-01-28T00:03:43.903Z,102020.03
2023-01-28T00:06:14.890Z,102021.59
2023-01-28T00:08:42.151Z,102027.69
2023-01-28T00:11:10.415Z,102035.34
2023-01-28T00:13:37.127Z,102038.03
2023-01-28T00:16:05.184Z,102042.47
2023-01-28T00:18:32.560Z,102042.56
2023-01-28T00:21:03.303Z,102035.72
2023-01-28T00:23:31.519Z,102042.69
2023-01-28T00:25:58.947Z,102047.09
2023-01-28T00:28:25.762Z,102039.41
2023-01-28T00:30:52.319Z,102046.41
2023-01-28T00:33:18.867Z,102047.31
2023-01-28T00:35:45.436Z,102043.09
2023-01-28T00:38:12.111Z,102046.56
2023-01-28T00:40:38.633Z,102047.47
2023-01-28T00:43:05.142Z,102057.78
2023-01-28T00:45:31.861Z,102068.16
2023-01-28T00:47:58.430Z,102068.16
2023-01-28T00:50:25.231Z,102062.91
2023-01-28T00:52:51.748Z,102052.50
2023-01-28T00:55:18.518Z,102053.31
2023-01-28T00:57:45.037Z,102054.19
2023-01-28T01:00:11.821Z,102056.00
2023-01-28T01:02:40.902Z,102060.41
2023-01-28T01:05:08.705Z,102062.03
2023-01-28T01:07:41.816Z,102049.78
2023-01-28T01:10:10.512Z,102055.72
2023-01-28T01:12:37.179Z,102057.28
2023-01-28T01:15:04.067Z,102070.88
2023-01-28T01:17:31.816Z,102060.50
2023-01-28T01:19:58.370Z,102071.91
2023-01-28T01:22:25.102Z,102081.44
2023-01-28T01:24:51.665Z,102075.41
2023-01-28T01:27:18.300Z,102071.91
2023-01-28T01:29:44.815Z,102072.72
2023-01-28T01:32:11.426Z,102069.25
2023-01-28T01:34:38.151Z,102086.50
2023-01-28T01:37:06.437Z,102093.44
2023-01-28T01:39:32.932Z,102092.56
2023-01-28T01:41:59.452Z,102093.44
2023-01-28T01:44:44.996Z,102092.44
2023-01-28T01:47:11.951Z,102098.38
2023-01-28T01:49:39.017Z,102093.94
2023-01-28T01:52:10.915Z,102092.16
2023-01-28T01:54:39.421Z,102096.44
2023-01-28T01:57:08.326Z,102083.53
2023-01-28T01:59:35.865Z,102088.69
2023-01-28T02:02:04.068Z,102080.28
2023-01-28T02:04:48.907Z,102086.63
2023-01-28T02:07:16.353Z,102097.31
2023-01-28T02:09:43.093Z,102106.13
2023-01-28T02:12:14.497Z,102108.00
2023-01-28T02:14:46.380Z,102106.34
2023-01-28T02:17:13.532Z,102108.19
2023-01-28T02:19:43.905Z,102109.16
2023-01-28T02:22:22.599Z,102107.63
2023-01-28T02:24:57.998Z,102111.09
2023-01-28T02:27:31.810Z,102118.06
2023-01-28T02:30:13.517Z,102126.75
2023-01-28T02:32:46.302Z,102138.06
2023-01-28T02:35:16.470Z,102132.09
2023-01-28T02:37:51.170Z,102135.59
2023-01-28T02:40:23.958Z,102129.41
2023-01-28T02:42:50.530Z,102135.41
2023-01-28T02:45:20.232Z,102138.72
2023-01-28T02:47:58.788Z,102131.88
2023-01-28T02:50:41.132Z,102131.72
2023-01-28T02:53:31.836Z,102144.53
2023-01-28T02:56:06.043Z,102140.88
2023-01-28T02:58:38.009Z,102137.50
2023-01-28T03:01:04.777Z,102134.94
2023-01-28T03:03:37.387Z,102137.72
2023-01-28T03:06:07.146Z,102143.72
2023-01-28T03:09:12.211Z,102157.72
2023-01-28T03:11:59.788Z,102155.31
2023-01-28T03:14:46.396Z,102150.31
2023-01-28T03:17:35.163Z,102133.91
2023-01-28T03:20:20.525Z,102139.22
2023-01-28T03:23:08.764Z,102134.13
2023-01-28T03:25:54.243Z,102130.59
2023-01-28T03:28:40.951Z,102132.34
2023-01-28T03:31:28.162Z,102127.06
2023-01-28T03:34:14.378Z,102129.63
2023-01-28T03:36:53.738Z,102134.78
2023-01-28T03:39:23.395Z,102139.97
2023-01-28T03:42:03.807Z,102152.06
2023-01-28T03:44:49.313Z,102146.03
2023-01-28T03:47:16.018Z,102142.66
2023-01-28T03:49:45.715Z,102149.53
2023-01-28T03:52:13.264Z,102153.91
2023-01-28T03:54:39.892Z,102155.78
2023-01-28T03:57:06.761Z,102163.66
2023-01-28T03:59:34.077Z,102156.66
2023-01-28T04:02:00.639Z,102161.13
2023-01-28T04:04:28.356Z,102162.84
2023-01-28T04:06:55.207Z,102176.72
2023-01-28T04:09:22.487Z,102186.22
2023-01-28T04:11:49.601Z,102193.28
2023-01-28T04:14:16.402Z,102195.00
2023-01-28T04:16:43.079Z,102195.91
2023-01-28T04:19:09.922Z,102194.31
2023-01-28T04:21:36.501Z,102181.38
2023-01-28T04:24:03.222Z,102183.06
2023-01-28T04:26:30.107Z,102179.63
2023-01-28T04:28:56.705Z,102180.59
2023-01-28T04:31:24.000Z,102185.81
2023-01-28T04:33:50.851Z,102185.78
2023-01-28T04:36:17.498Z,102189.25
2023-01-28T04:38:44.146Z,102177.94
2023-01-28T04:41:10.907Z,102178.84
2023-01-28T04:43:37.481Z,102180.59
2023-01-28T04:46:04.191Z,102186.69
2023-01-28T04:48:31.504Z,102191.88
2023-01-28T04:50:58.143Z,102184.06
2023-01-28T04:53:24.719Z,102179.72
2023-01-28T04:55:51.289Z,102167.56
2023-01-28T04:58:17.879Z,102167.56
2023-01-28T05:00:44.640Z,102164.06
2023-01-28T05:03:11.403Z,102161.50
2023-01-28T05:05:38.129Z,102169.28
2023-01-28T05:08:04.745Z,102182.25
2023-01-28T05:10:31.363Z,102180.50
2023-01-28T05:12:57.859Z,102180.50
2023-01-28T05:15:24.479Z,102184.75
2023-01-28T05:17:51.038Z,102180.38
2023-01-28T05:20:17.628Z,102196.78
2023-01-28T05:22:44.227Z,102197.66
2023-01-28T05:25:10.799Z,102209.75
2023-01-28T05:27:37.645Z,102215.84
2023-01-28T05:30:04.979Z,102210.59
2023-01-28T05:32:31.586Z,102213.22
2023-01-28T05:34:58.197Z,102206.28
2023-01-28T05:37:24.692Z,102199.38
2023-01-28T05:39:51.373Z,102208.06
2023-01-28T05:42:20.869Z,102212.38
2023-01-28T05:44:47.649Z,102214.16
2023-01-28T05:47:14.198Z,102215.88
2023-01-28T05:49:40.885Z,102209.03
2023-01-28T05:52:07.519Z,102209.00
2023-01-28T05:54:34.141Z,102199.44
2023-01-28T05:57:00.713Z,102195.16
2023-01-28T05:59:27.237Z,102197.75
2023-01-28T06:01:53.766Z,102200.34
2023-01-28T06:04:20.466Z,102197.75
2023-01-28T06:06:47.066Z,102209.91
2023-01-28T06:09:13.629Z,102214.19
2023-01-28T06:11:40.311Z,102212.47
2023-01-28T06:14:06.817Z,102225.47
2023-01-28T06:16:33.487Z,102213.34
2023-01-28T06:19:00.175Z,102218.56
2023-01-28T06:21:28.434Z,102214.22
2023-01-28T06:23:56.531Z,102226.34
2023-01-28T06:26:24.121Z,102227.19
2023-01-28T06:28:50.719Z,102224.56
2023-01-28T06:31:17.374Z,102219.34
2023-01-28T06:33:43.983Z,102225.44
2023-01-28T06:36:10.640Z,102213.28
2023-01-28T06:38:37.201Z,102222.78
2023-01-28T06:41:03.742Z,102214.97
2023-01-28T06:43:30.993Z,102214.13
2023-01-28T06:45:58.616Z,102205.41
2023-01-28T06:48:26.063Z,102207.94
2023-01-28T06:50:53.059Z,102199.19
2023-01-28T06:53:19.580Z,102204.34
2023-01-28T06:55:46.098Z,102205.16
2023-01-28T06:58:13.219Z,102206.81
2023-01-28T07:00:40.060Z,102217.16
2023-01-28T07:03:06.890Z,102207.63
2023-01-28T07:05:33.487Z,102214.53
2023-01-28T07:08:00.349Z,102215.38
2023-01-28T07:10:26.940Z,102215.38
2023-01-28T07:12:53.457Z,102223.22
2023-01-28T07:15:20.073Z,102223.22
2023-01-28T07:17:46.640Z,102223.22
2023-01-28T07:20:15.230Z,102218.03
2023-01-28T07:22:43.028Z,102218.88
2023-01-28T07:25:10.261Z,102216.22
2023-01-28T07:27:36.979Z,102207.56
2023-01-28T07:30:04.093Z,102203.25
2023-01-28T07:32:30.699Z,102205.84
2023-01-28T07:34:57.288Z,102213.59
2023-01-28T07:37:23.874Z,102217.00
2023-01-28T07:39:50.479Z,102216.91
2023-01-28T07:42:18.098Z,102219.47
2023-01-28T07:44:44.677Z,102215.94
2023-01-28T07:47:11.842Z,102224.56
2023-01-28T07:49:40.037Z,102220.19
2023-01-28T07:52:07.189Z,102222.75
2023-01-28T07:54:33.686Z,102227.91
2023-01-28T07:57:00.643Z,102233.00
2023-01-28T07:59:27.265Z,102225.19
2023-01-28T08:01:56.769Z,102224.28
2023-01-28T08:04:23.475Z,102210.34
2023-01-28T08:06:52.456Z,102217.25
2023-01-28T08:09:19.116Z,102216.44
2023-01-28T08:11:45.644Z,102225.94
2023-01-28T08:14:12.199Z,102239.81
2023-01-28T08:16:38.722Z,102253.56
2023-01-28T08:19:05.464Z,102269.94
2023-01-28T08:21:32.019Z,102262.03
2023-01-28T08:23:58.526Z,102266.28
2023-01-28T08:26:25.291Z,102269.69
2023-01-28T08:28:51.929Z,102276.72
2023-01-28T08:31:18.785Z,102275.09
2023-01-28T08:33:45.483Z,102282.88
2023-01-28T08:36:12.242Z,102285.47
2023-01-28T08:38:38.873Z,102281.16
2023-01-28T08:41:05.507Z,102262.09
2023-01-28T08:43:32.111Z,102257.72
2023-01-28T08:45:58.849Z,102255.06
2023-01-28T08:48:25.431Z,102267.91
2023-01-28T08:50:52.197Z,102279.88
2023-01-28T08:53:19.718Z,102291.94
2023-01-28T08:55:46.840Z,102290.31
2023-01-28T08:58:15.268Z,102303.25
2023-01-28T09:00:42.252Z,102304.09
2023-01-28T09:03:08.937Z,102292.91
2023-01-28T09:05:36.147Z,102293.81
2023-01-28T09:08:06.876Z,102296.44
2023-01-28T09:10:33.451Z,102296.53
2023-01-28T09:13:04.387Z,102301.75
2023-01-28T09:15:32.692Z,102302.63
2023-01-28T09:17:59.470Z,102307.81
2023-01-28T09:20:26.207Z,102313.19
2023-01-28T09:22:52.814Z,102310.75
2023-01-28T09:25:19.646Z,102302.00
2023-01-28T09:27:46.216Z,102310.00
2023-01-28T09:30:14.412Z,102312.72
2023-01-28T09:32:41.196Z,102322.31
2023-01-28T09:35:07.875Z,102326.63
2023-01-28T09:37:34.610Z,102330.22
2023-01-28T09:40:01.126Z,102328.63
2023-01-28T09:42:36.218Z,102322.66
2023-01-28T09:45:05.927Z,102319.28
2023-01-28T09:47:32.519Z,102321.13
2023-01-28T09:50:00.485Z,102317.78
2023-01-28T09:52:27.277Z,102317.81
2023-01-28T09:55:02.985Z,102316.06
2023-01-28T09:57:41.857Z,102309.97
2023-01-28T10:00:20.464Z,102312.66
2023-01-28T10:02:50.415Z,102309.16
2023-01-28T10:05:40.914Z,102310.06
2023-01-28T10:08:19.765Z,102310.88
2023-01-28T10:10:57.598Z,102296.13
2023-01-28T10:13:24.110Z,102298.75
2023-01-28T10:15:54.675Z,102296.94
2023-01-28T10:18:33.722Z,102293.41
2023-01-28T10:21:08.179Z,102289.03
2023-01-28T10:23:34.759Z,102277.81
2023-01-28T10:26:04.802Z,102274.31
2023-01-28T10:28:32.708Z,102269.94
2023-01-28T10:30:59.342Z,102263.84
2023-01-28T10:33:28.876Z,102263.91
2023-01-28T10:35:56.275Z,102262.19
2023-01-28T10:38:24.143Z,102264.00
2023-01-28T10:40:50.990Z,102256.31
2023-01-28T10:43:19.979Z,102252.91
2023-01-28T10:45:52.832Z,102264.19
2023-01-28T10:48:30.366Z,102261.59
2023-01-28T10:51:00.191Z,102255.63
2023-01-28T10:53:42.704Z,102253.06
2023-01-28T10:56:16.451Z,102256.59
2023-01-28T10:59:01.365Z,102249.84
2023-01-28T11:01:45.589Z,102249.13
2023-01-28T11:04:17.274Z,102238.72
2023-01-28T11:06:52.027Z,102231.91
2023-01-28T11:09:22.567Z,102228.44
2023-01-28T11:11:49.253Z,102222.44
2023-01-28T11:14:20.283Z,102221.63
2023-01-28T11:16:47.201Z,102219.06
2023-01-28T11:19:13.960Z,102214.78
2023-01-28T11:21:40.482Z,102216.50
2023-01-28T11:24:20.119Z,102206.97
2023-01-28T11:26:49.630Z,102213.91
2023-01-28T11:29:25.430Z,102214.81
2023-01-28T11:31:52.549Z,102212.16
2023-01-28T11:34:20.076Z,102207.84
2023-01-28T11:36:50.915Z,102195.69
2023-01-28T11:39:20.792Z,102197.44
2023-01-28T11:41:47.564Z,102186.16
2023-01-28T11:44:14.641Z,102187.91
2023-01-28T11:46:47.176Z,102186.19
2023-01-28T11:49:22.898Z,102188.75
2023-01-28T11:51:52.306Z,102199.19
2023-01-28T11:54:29.034Z,102200.91
2023-01-28T11:56:58.785Z,102199.13
2023-01-28T11:59:28.358Z,102206.97
2023-01-28T12:02:04.036Z,102211.31
2023-01-28T12:04:36.405Z,102213.03
2023-01-28T12:07:03.018Z,102225.19
2023-01-28T12:09:44.706Z,102216.53
2023-01-28T12:12:29.860Z,102206.16
2023-01-28T12:15:15.137Z,102211.38
2023-01-28T12:17:41.716Z,102208.78
2023-01-28T12:20:19.608Z,102207.91
2023-01-28T12:22:46.180Z,102196.59
2023-01-28T12:25:19.529Z,102200.09
2023-01-28T12:27:48.875Z,102194.00
2023-01-28T12:30:21.256Z,102191.41
2023-01-28T12:32:55.234Z,102199.22
2023-01-28T12:35:25.206Z,102190.50
2023-01-28T12:38:10.791Z,102184.41
2023-01-28T12:40:45.276Z,102179.19
2023-01-28T12:43:11.852Z,102173.97
2023-01-28T12:45:45.759Z,102167.91
2023-01-28T12:48:16.481Z,102163.56
2023-01-28T12:50:46.754Z,102162.69
2023-01-28T12:53:35.449Z,102149.66
2023-01-28T12:56:15.802Z,102145.31
2023-01-28T12:58:45.483Z,102141.84
2023-01-28T13:01:15.790Z,102141.84
2023-01-28T13:03:49.807Z,102139.19
2023-01-28T13:06:30.728Z,102129.63
2023-01-28T13:09:00.743Z,102129.66
2023-01-28T13:11:32.904Z,102120.09
2023-01-28T13:13:59.890Z,102112.22
2023-01-28T13:16:36.806Z,102103.50
2023-01-28T13:19:08.339Z,102099.03
2023-01-28T13:21:47.673Z,102092.88
2023-01-28T13:24:15.575Z,102083.34
2023-01-28T13:26:44.753Z,102074.69
2023-01-28T13:29:14.352Z,102072.84
2023-01-28T13:31:45.422Z,102065.88
2023-01-28T13:34:36.297Z,102058.16
2023-01-28T13:37:21.655Z,102061.72
2023-01-28T13:39:50.268Z,102056.53
2023-01-28T13:42:19.746Z,102049.44
2023-01-28T13:44:46.566Z,102048.53
2023-01-28T13:47:29.633Z,102041.63
2023-01-28T13:50:07.527Z,102036.44
2023-01-28T13:52:43.136Z,102033.91
2023-01-28T13:55:12.967Z,102036.53
2023-01-28T13:57:59.951Z,102037.41
2023-01-28T14:00:49.594Z,102031.28
2023-01-28T14:03:19.180Z,102040.00
2023-01-28T14:06:04.380Z,102036.53
2023-01-28T14:08:30.879Z,102040.00
2023-01-28T14:10:57.433Z,102039.16
2023-01-28T14:13:23.967Z,102038.22
2023-01-28T14:15:59.108Z,102042.59
2023-01-28T14:18:27.455Z,102036.47
2023-01-28T14:20:55.607Z,102045.09
2023-01-28T14:23:23.481Z,102041.63
2023-01-28T14:25:49.966Z,102050.34
2023-01-28T14:28:36.959Z,102051.19
2023-01-28T14:31:09.351Z,102049.44
2023-01-28T14:33:36.545Z,102050.44
2023-01-28T14:36:03.258Z,102054.78
2023-01-28T14:38:34.259Z,102056.50
2023-01-28T14:41:00.806Z,102054.84
2023-01-28T14:43:27.936Z,102058.31
2023-01-28T14:46:09.006Z,102053.09
2023-01-28T14:48:48.909Z,102064.38
2023-01-28T14:51:18.512Z,102063.53
2023-01-28T14:54:03.447Z,102060.94
2023-01-28T14:56:35.506Z,102057.41
2023-01-28T14:59:13.852Z,102071.31
2023-01-28T15:01:44.308Z,102073.16
2023-01-28T15:04:29.273Z,102084.44
2023-01-28T15:06:56.455Z,102081.84
2023-01-28T15:09:23.519Z,102076.63
2023-01-28T15:11:52.332Z,102076.66
2023-01-28T15:14:27.661Z,102074.91
2023-01-28T15:16:54.687Z,102074.91
2023-01-28T15:19:26.173Z,102074.06
2023-01-28T15:21:55.085Z,102083.63
2023-01-28T15:24:21.699Z,102080.19
2023-01-28T15:26:48.285Z,102087.13
2023-01-28T15:29:41.252Z,102085.38
2023-01-28T15:32:20.973Z,102086.28
2023-01-28T15:34:47.801Z,102089.78
2023-01-28T15:37:14.596Z,102082.84
2023-01-28T15:39:41.234Z,102094.13
2023-01-28T15:42:07.889Z,102096.75
2023-01-28T15:44:36.311Z,102093.28
2023-01-28T15:47:04.751Z,102088.09
2023-01-28T15:49:34.387Z,102091.56
2023-01-28T15:52:01.355Z,102098.53
2023-01-28T15:54:30.390Z,102105.47
2023-01-28T15:56:57.193Z,102098.53
2023-01-28T15:59:28.152Z,102097.66
2023-01-28T16:02:12.760Z,102088.13
2023-01-28T16:04:39.279Z,102082.91
2023-01-28T16:07:06.125Z,102087.25
2023-01-28T16:09:34.115Z,102084.63
2023-01-28T16:12:05.731Z,102087.22
2023-01-28T16:14:38.173Z,102074.22
2023-01-28T16:17:05.006Z,102077.69
2023-01-28T16:19:39.494Z,102074.22
2023-01-28T16:22:07.117Z,102071.59
2023-01-28T16:24:36.630Z,102075.94
2023-01-28T16:27:07.445Z,102078.50
2023-01-28T16:29:34.316Z,102074.16
2023-01-28T16:32:01.348Z,102068.88
2023-01-28T16:34:28.252Z,102055.84
2023-01-28T16:37:01.807Z,102055.81
2023-01-28T16:39:28.588Z,102065.34
2023-01-28T16:41:57.023Z,102063.59
2023-01-28T16:44:23.664Z,102053.16
2023-01-28T16:46:50.266Z,102058.34
2023-01-28T16:49:17.116Z,102060.06
2023-01-28T16:51:46.613Z,102056.56
2023-01-28T16:54:15.096Z,102047.03
2023-01-28T16:56:46.489Z,102044.41
2023-01-28T16:59:15.041Z,102037.44
2023-01-28T17:01:41.927Z,102041.78
2023-01-28T17:04:12.817Z,102033.91
2023-01-28T17:06:43.505Z,102032.13
2023-01-28T17:09:11.048Z,102038.97
2023-01-28T17:11:39.756Z,102038.91
2023-01-28T17:14:06.610Z,102038.03
2023-01-28T17:16:33.183Z,102024.16
2023-01-28T17:18:59.798Z,102024.16
2023-01-28T17:21:26.335Z,102010.38
2023-01-28T17:23:52.988Z,102010.34
2023-01-28T17:26:19.828Z,102013.78
2023-01-28T17:28:51.193Z,102012.88
2023-01-28T17:31:17.852Z,102003.34
2023-01-28T17:33:44.700Z,101992.91
2023-01-28T17:36:11.397Z,101989.41
2023-01-28T17:38:38.114Z,101986.72
2023-01-28T17:41:06.151Z,101978.88
2023-01-28T17:43:34.321Z,101971.94
2023-01-28T17:46:01.583Z,101984.03
2023-01-28T17:48:29.595Z,101973.59
2023-01-28T17:50:56.551Z,101983.97
2023-01-28T17:53:23.147Z,101996.13
2023-01-28T17:55:49.671Z,102002.13
2023-01-28T17:58:16.398Z,102003.94
2023-01-28T18:00:43.039Z,101988.41
2023-01-28T18:03:13.453Z,101988.41
2023-01-28T18:05:40.179Z,101990.13
2023-01-28T18:08:06.896Z,101998.69
2023-01-28T18:10:33.830Z,101993.38
2023-01-28T18:13:00.411Z,101989.81
2023-01-28T18:15:28.524Z,101995.75
2023-01-28T18:17:55.496Z,101996.44
2023-01-28T18:20:22.047Z,101997.34
2023-01-28T18:22:48.924Z,101990.38
2023-01-28T18:25:16.926Z,101996.47
2023-01-28T18:27:44.350Z,101989.56
2023-01-28T18:30:11.371Z,101989.47
2023-01-28T18:32:38.183Z,101985.97
2023-01-28T18:35:06.627Z,101983.34
2023-01-28T18:37:33.293Z,101971.25
2023-01-28T18:39:59.837Z,101972.97
2023-01-28T18:42:26.387Z,101969.47
2023-01-28T18:44:52.964Z,101958.22
2023-01-28T18:47:19.624Z,101948.63
2023-01-28T18:49:46.218Z,101947.72
2023-01-28T18:52:13.010Z,101948.50
2023-01-28T18:54:39.588Z,101938.28
2023-01-28T18:57:06.380Z,101939.09
2023-01-28T18:59:32.902Z,101933.88
2023-01-28T19:01:59.577Z,101923.56
2023-01-28T19:04:26.220Z,101948.66
2023-01-28T19:06:55.363Z,101946.94
2023-01-28T19:09:21.881Z,101939.19
2023-01-28T19:11:50.559Z,101930.66
2023-01-28T19:14:17.739Z,101916.00
2023-01-28T19:16:44.430Z,101926.28
2023-01-28T19:19:11.350Z,101923.66
2023-01-28T19:21:38.094Z,101924.47
2023-01-28T19:24:09.945Z,101925.44
2023-01-28T19:26:37.200Z,101921.13
2023-01-28T19:29:06.061Z,101919.38
2023-01-28T19:31:32.720Z,101920.25
2023-01-28T19:34:00.327Z,101918.47
2023-01-28T19:36:28.353Z,101916.72
2023-01-28T19:38:59.539Z,101918.44
2023-01-28T19:41:26.889Z,101928.06
2023-01-28T19:43:53.441Z,101918.69
2023-01-28T19:46:20.201Z,101923.16
2023-01-28T19:48:47.260Z,101912.03
2023-01-28T19:51:15.231Z,101914.75
2023-01-28T19:53:42.627Z,101900.19
2023-01-28T19:56:10.524Z,101890.66
2023-01-28T19:58:38.043Z,101879.44
2023-01-28T20:01:08.981Z,101870.84
2023-01-28T20:03:35.699Z,101877.75
2023-01-28T20:06:03.530Z,101879.50
2023-01-28T20:08:30.498Z,101871.72
2023-01-28T20:11:07.617Z,101875.16
2023-01-28T20:13:34.986Z,101873.41
2023-01-28T20:16:06.063Z,101856.09
2023-01-28T20:18:32.889Z,101854.28
2023-01-28T20:20:59.725Z,101851.66
2023-01-28T20:23:26.260Z,101846.47
2023-01-28T20:25:54.865Z,101832.53
2023-01-28T20:28:22.275Z,101839.41
2023-01-28T20:30:49.456Z,101826.44
2023-01-28T20:33:16.282Z,101834.13
2023-01-28T20:35:43.441Z,101837.50
2023-01-28T20:38:10.383Z,101831.44
2023-01-28T20:40:37.999Z,101823.66
2023-01-28T20:43:04.507Z,101827.94
2023-01-28T20:45:31.645Z,101827.97
2023-01-28T20:47:58.131Z,101830.50
2023-01-28T20:50:24.743Z,101822.69
2023-01-28T20:52:51.737Z,101818.38
2023-01-28T20:55:18.277Z,101814.88
2023-01-28T20:57:45.055Z,101813.13
2023-01-28T21:00:12.383Z,101801.81
2023-01-28T21:02:39.987Z,101804.41
2023-01-28T21:05:06.846Z,101800.06
2023-01-28T21:07:33.383Z,101788.91
2023-01-28T21:10:02.234Z,101782.81
2023-01-28T21:12:30.276Z,101770.75
2023-01-28T21:14:57.012Z,101762.13
2023-01-28T21:17:24.211Z,101760.41
2023-01-28T21:19:51.004Z,101750.94
2023-01-28T21:22:17.555Z,101753.53
2023-01-28T21:24:44.837Z,101763.84
2023-01-28T21:27:11.379Z,101764.69
2023-01-28T21:29:38.017Z,101759.47
2023-01-28T21:32:05.192Z,101746.41
2023-01-28T21:34:31.803Z,101750.53
2023-01-28T21:36:58.304Z,101749.63
2023-01-28T21:39:24.894Z,101756.47
2023-01-28T21:41:51.421Z,101753.00
2023-01-28T21:44:17.934Z,101747.69
2023-01-28T21:46:46.347Z,101742.47
2023-01-28T21:49:12.984Z,101745.03
2023-01-28T21:51:39.849Z,101727.75
2023-01-28T21:54:13.894Z,101734.66
2023-01-28T21:56:41.891Z,101726.94
2023-01-28T21:59:28.073Z,101731.28
2023-01-28T22:01:55.373Z,101734.75
2023-01-28T22:04:22.006Z,101726.94
2023-01-28T22:06:49.359Z,101731.22
2023-01-28T22:09:15.956Z,101735.41
2023-01-28T22:11:43.577Z,101725.00
2023-01-28T22:14:10.602Z,101726.63
2023-01-28T22:16:37.818Z,101728.28
2023-01-28T22:19:04.470Z,101730.06
2023-01-28T22:21:31.340Z,101722.28
2023-01-28T22:23:57.896Z,101728.31
2023-01-28T22:26:24.480Z,101728.34
2023-01-28T22:28:51.276Z,101717.19
2023-01-28T22:31:17.976Z,101710.22
2023-01-28T22:33:45.820Z,101707.66
2023-01-28T22:36:15.093Z,101694.78
2023-01-28T22:38:42.552Z,101677.38
2023-01-28T22:41:10.909Z,101647.25
2023-01-28T22:43:37.522Z,101640.38
2023-01-28T22:46:04.773Z,101632.56
2023-01-28T22:48:31.353Z,101630.06
2023-01-28T22:51:08.647Z,101621.47
2023-01-28T22:53:35.197Z,101618.88
2023-01-28T22:56:02.824Z,101621.44
2023-01-28T22:58:31.581Z,101623.22
2023-01-28T23:00:58.234Z,101627.53
2023-01-28T23:03:24.829Z,101616.25
2023-01-28T23:05:51.795Z,101619.63
2023-01-28T23:08:18.759Z,101629.84
2023-01-28T23:10:53.446Z,101631.63
2023-01-28T23:13:21.005Z,101634.22
2023-01-28T23:16:06.726Z,101645.41
2023-01-28T23:18:52.550Z,101651.38
2023-01-28T23:21:42.373Z,101651.25
2023-01-28T23:24:21.960Z,101646.22
2023-01-28T23:26:52.699Z,101641.81
2023-01-28T23:29:20.356Z,101643.47
2023-01-28T23:31:48.376Z,101646.97
2023-01-28T23:34:16.349Z,101644.47
2023-01-28T23:36:43.493Z,101644.38
2023-01-28T23:39:10.042Z,101633.28
2023-01-28T23:41:36.669Z,101615.25
2023-01-28T23:44:03.801Z,101596.28
2023-01-28T23:46:39.386Z,101597.16
2023-01-28T23:49:06.863Z,101588.50
2023-01-28T23:51:33.415Z,101577.16
2023-01-28T23:53:59.936Z,101564.03
2023-01-28T23:56:26.506Z,101549.31
2023-01-28T23:58:53.340Z,101549.22
